createdAt,value
2018-06-02T00:00:27.258Z,4.83
2018-06-02T00:02:54.978Z,4.97
2018-06-02T00:05:22.666Z,4.33
2018-06-02T00:07:50.407Z,4.80
2018-06-02T00:10:18.078Z,4.57
2018-06-02T00:12:45.752Z,4.63
2018-06-02T00:15:13.478Z,4.70
2018-06-02T00:17:41.918Z,4.70
2018-06-02T00:20:09.595Z,4.50
2018-06-02T00:22:37.310Z,4.87
2018-06-02T00:25:04.990Z,4.83
2018-06-02T00:27:32.707Z,4.93
2018-06-02T00:30:00.382Z,5.10
2018-06-02T00:32:28.098Z,4.73
2018-06-02T00:34:55.814Z,4.67
2018-06-02T00:37:24.287Z,4.70
2018-06-02T00:39:52.009Z,5.33
2018-06-02T00:42:19.726Z,5.03
2018-06-02T00:44:47.413Z,5.40
2018-06-02T00:47:15.906Z,5.53
2018-06-02T00:49:44.346Z,4.20
2018-06-02T00:52:12.024Z,4.20
2018-06-02T00:54:51.595Z,5.03
2018-06-02T00:57:20.032Z,5.10
2018-06-02T00:59:48.655Z,4.50
2018-06-02T01:02:17.094Z,5.13
2018-06-02T01:04:44.826Z,4.10
2018-06-02T01:07:12.538Z,4.47
2018-06-02T01:09:40.254Z,4.53
2018-06-02T01:12:07.931Z,4.87
2018-06-02T01:14:35.669Z,4.37
2018-06-02T01:17:03.352Z,4.70
2018-06-02T01:19:31.935Z,4.73
2018-06-02T01:21:59.616Z,5.40
2018-06-02T01:24:27.335Z,4.30
2018-06-02T01:26:55.774Z,4.80
2018-06-02T01:29:23.454Z,4.77
2018-06-02T01:31:51.169Z,4.03
2018-06-02T01:34:18.847Z,4.53
2018-06-02T01:36:46.571Z,4.97
2018-06-02T01:39:14.252Z,5.27
2018-06-02T01:41:41.975Z,4.50
2018-06-02T01:44:09.651Z,4.60
2018-06-02T01:46:38.155Z,4.60
2018-06-02T01:49:05.887Z,4.47
2018-06-02T01:51:34.349Z,4.13
2018-06-02T01:54:02.062Z,5.00
2018-06-02T01:56:29.739Z,4.13
2018-06-02T01:58:57.450Z,4.40
2018-06-02T02:01:25.135Z,5.13
2018-06-02T02:03:53.622Z,5.20
2018-06-02T02:06:22.068Z,5.10
2018-06-02T02:08:49.783Z,4.87
2018-06-02T02:11:17.459Z,4.30
2018-06-02T02:13:45.170Z,5.20
2018-06-02T02:16:12.848Z,4.57
2018-06-02T02:18:41.338Z,4.87
2018-06-02T02:21:09.792Z,4.70
2018-06-02T02:23:37.470Z,5.03
2018-06-02T02:26:05.951Z,4.33
2018-06-02T02:28:34.404Z,5.23
2018-06-02T02:31:02.135Z,5.60
2018-06-02T02:33:29.843Z,4.60
2018-06-02T02:35:57.643Z,5.00
2018-06-02T02:38:25.315Z,4.63
2018-06-02T02:40:53.043Z,4.63
2018-06-02T02:43:20.755Z,4.70
2018-06-02T02:45:48.467Z,4.50
2018-06-02T02:48:16.144Z,4.40
2018-06-02T02:50:44.635Z,4.60
2018-06-02T02:53:13.092Z,4.77
2018-06-02T02:55:40.818Z,4.63
2018-06-02T02:58:08.495Z,4.70
2018-06-02T03:00:36.206Z,3.97
2018-06-02T03:03:04.655Z,4.50
2018-06-02T03:05:32.375Z,4.30
2018-06-02T03:08:00.058Z,4.63
2018-06-02T03:10:27.813Z,4.80
2018-06-02T03:12:55.533Z,4.53
2018-06-02T03:15:24.018Z,4.90
2018-06-02T03:17:52.511Z,4.67
2018-06-02T03:20:20.231Z,4.40
2018-06-02T03:22:47.948Z,4.80
2018-06-02T03:25:15.658Z,4.60
2018-06-02T03:27:43.330Z,4.50
2018-06-02T03:30:11.070Z,4.00
2018-06-02T03:32:38.762Z,3.90
2018-06-02T03:35:06.483Z,4.67
2018-06-02T03:37:38.003Z,4.20
2018-06-02T03:40:05.691Z,4.67
2018-06-02T03:42:33.408Z,4.23
2018-06-02T03:45:01.855Z,4.03
2018-06-02T03:47:29.566Z,4.07
2018-06-02T03:49:58.002Z,4.60
2018-06-02T03:52:25.759Z,4.60
2018-06-02T03:54:53.431Z,4.60
2018-06-02T03:57:21.107Z,5.57
2018-06-02T03:59:48.820Z,5.20
2018-06-02T04:02:16.503Z,4.93
2018-06-02T04:04:44.217Z,5.40
2018-06-02T04:07:12.707Z,5.87
2018-06-02T04:09:41.332Z,5.00
2018-06-02T04:12:08.998Z,4.77
2018-06-02T04:14:36.718Z,6.03
2018-06-02T04:17:05.165Z,5.57
2018-06-02T04:19:32.886Z,6.10
2018-06-02T04:22:00.612Z,5.83
2018-06-02T04:24:28.340Z,6.13
2018-06-02T04:26:56.058Z,5.70
2018-06-02T04:29:24.494Z,6.07
2018-06-02T04:31:52.218Z,6.63
2018-06-02T04:34:19.890Z,6.73
2018-06-02T04:36:47.622Z,6.10
2018-06-02T04:39:16.109Z,5.70
2018-06-02T04:41:44.587Z,5.87
2018-06-02T04:44:13.035Z,5.50
2018-06-02T04:46:40.721Z,5.50
2018-06-02T04:49:08.438Z,5.70
2018-06-02T04:51:36.119Z,5.40
2018-06-02T04:54:03.839Z,5.33
2018-06-02T04:56:31.560Z,5.53
2018-06-02T04:58:59.279Z,5.47
2018-06-02T05:01:26.995Z,6.17
2018-06-02T05:03:54.710Z,5.50
2018-06-02T05:06:22.427Z,6.20
2018-06-02T05:08:50.159Z,6.60
2018-06-02T05:11:17.859Z,6.67
2018-06-02T05:13:45.572Z,6.37
2018-06-02T05:16:13.258Z,6.03
2018-06-02T05:18:40.974Z,6.13
2018-06-02T05:21:09.455Z,5.93
2018-06-02T05:23:37.936Z,6.43
2018-06-02T05:26:06.435Z,6.20
2018-06-02T05:28:34.115Z,6.53
2018-06-02T05:31:01.802Z,6.43
2018-06-02T05:33:29.514Z,5.53
2018-06-02T05:35:57.959Z,5.73
2018-06-02T05:38:25.670Z,6.60
2018-06-02T05:40:53.351Z,5.30
2018-06-02T05:43:21.078Z,6.00
2018-06-02T05:45:48.755Z,5.67
2018-06-02T05:48:16.433Z,5.77
2018-06-02T05:50:44.193Z,5.60
2018-06-02T05:53:11.914Z,5.73
2018-06-02T05:55:39.637Z,5.50
2018-06-02T05:58:07.370Z,5.97
2018-06-02T06:00:35.067Z,5.93
2018-06-02T06:03:02.738Z,5.43
2018-06-02T06:05:30.473Z,5.93
2018-06-02T06:07:58.152Z,5.30
2018-06-02T06:10:25.834Z,6.43
2018-06-02T06:12:53.570Z,5.23
2018-06-02T06:15:22.061Z,5.27
2018-06-02T06:17:49.753Z,5.33
2018-06-02T06:20:18.196Z,5.57
2018-06-02T06:22:45.930Z,5.50
2018-06-02T06:25:13.610Z,5.30
2018-06-02T06:27:41.297Z,4.93
2018-06-02T06:30:09.026Z,4.90
2018-06-02T06:32:36.747Z,4.70
2018-06-02T06:35:04.422Z,4.20
2018-06-02T06:37:32.134Z,4.07
2018-06-02T06:39:59.818Z,3.90
2018-06-02T06:42:27.539Z,4.50
2018-06-02T06:44:55.263Z,4.37
2018-06-02T06:47:23.706Z,4.20
2018-06-02T06:49:51.426Z,3.57
2018-06-02T06:52:19.107Z,3.50
2018-06-02T06:54:47.591Z,3.43
2018-06-02T06:57:16.034Z,3.70
2018-06-02T06:59:43.756Z,3.27
2018-06-02T07:02:11.511Z,2.33
2018-06-02T07:04:40.002Z,2.60
2018-06-02T07:07:07.755Z,1.83
2018-06-02T07:09:36.205Z,2.33
2018-06-02T07:12:04.002Z,1.80
2018-06-02T07:14:31.654Z,1.40
2018-06-02T07:17:00.164Z,1.80
2018-06-02T07:19:27.904Z,2.50
2018-06-02T07:21:56.355Z,1.97
2018-06-02T07:24:24.792Z,1.73
2018-06-02T07:26:52.519Z,2.17
2018-06-02T07:29:20.244Z,2.77
2018-06-02T07:31:47.928Z,2.30
2018-06-02T07:34:15.654Z,2.97
2018-06-02T07:36:43.330Z,2.10
2018-06-02T07:39:11.067Z,1.90
2018-06-02T07:41:38.763Z,1.90
2018-06-02T07:44:06.447Z,2.17
2018-06-02T07:46:34.162Z,2.20
2018-06-02T07:49:01.848Z,1.80
2018-06-02T07:51:29.706Z,3.20
2018-06-02T07:53:57.395Z,2.00
2018-06-02T07:56:25.071Z,1.77
2018-06-02T07:58:53.554Z,2.40
2018-06-02T08:01:22.051Z,2.53
2018-06-02T08:03:49.726Z,2.80
2018-06-02T08:06:17.397Z,2.50
2018-06-02T08:08:45.124Z,1.87
2018-06-02T08:11:12.830Z,2.07
2018-06-02T08:13:40.546Z,1.77
2018-06-02T08:16:08.236Z,1.83
2018-06-02T08:18:36.157Z,1.70
2018-06-02T08:21:04.647Z,1.70
2018-06-02T08:23:33.125Z,2.20
2018-06-02T08:26:01.571Z,1.70
2018-06-02T08:28:29.252Z,1.67
2018-06-02T08:30:56.974Z,1.90
2018-06-02T08:33:24.653Z,1.60
2018-06-02T08:35:52.408Z,2.00
2018-06-02T08:38:20.127Z,2.20
2018-06-02T08:40:47.807Z,2.03
2018-06-02T08:43:15.484Z,2.20
2018-06-02T08:45:43.962Z,2.27
2018-06-02T08:48:12.042Z,2.20
2018-06-02T08:50:39.723Z,1.83
2018-06-02T08:53:07.444Z,1.60
2018-06-02T08:55:35.891Z,2.20
2018-06-02T08:58:03.611Z,1.33
2018-06-02T09:00:32.056Z,1.43
2018-06-02T09:02:59.776Z,1.40
2018-06-02T09:05:27.519Z,1.83
2018-06-02T09:07:55.944Z,2.63
2018-06-02T09:10:23.663Z,2.40
2018-06-02T09:12:52.106Z,2.33
2018-06-02T09:15:19.826Z,2.80
2018-06-02T09:17:47.502Z,2.50
2018-06-02T09:20:15.223Z,2.60
2018-06-02T09:22:42.936Z,2.33
2018-06-02T09:25:10.650Z,2.60
2018-06-02T09:27:39.095Z,2.70
2018-06-02T09:30:06.787Z,2.27
2018-06-02T09:32:34.502Z,2.63
2018-06-02T09:35:02.210Z,2.20
2018-06-02T09:37:30.711Z,1.50
2018-06-02T09:39:59.147Z,1.40
2018-06-02T09:42:26.858Z,1.27
2018-06-02T09:44:55.339Z,1.80
2018-06-02T09:47:23.818Z,1.10
2018-06-02T09:49:52.254Z,1.77
2018-06-02T09:52:19.969Z,1.20
2018-06-02T09:54:48.419Z,1.57
2018-06-02T09:57:16.153Z,1.30
2018-06-02T09:59:43.825Z,1.67
2018-06-02T10:02:11.498Z,1.60
2018-06-02T10:04:39.268Z,2.50
2018-06-02T10:07:06.946Z,2.23
2018-06-02T10:09:34.688Z,2.30
2018-06-02T10:12:02.369Z,2.00
2018-06-02T10:14:30.102Z,2.10
2018-06-02T10:16:58.541Z,2.27
2018-06-02T10:19:26.965Z,2.50
2018-06-02T10:21:54.682Z,2.23
2018-06-02T10:24:22.399Z,2.40
2018-06-02T10:26:50.264Z,2.50
2018-06-02T10:29:17.970Z,2.13
2018-06-02T10:31:45.759Z,2.17
2018-06-02T10:34:13.443Z,2.13
2018-06-02T10:36:41.159Z,2.23
2018-06-02T10:39:09.018Z,2.30
2018-06-02T10:41:36.735Z,2.30
2018-06-02T10:44:04.447Z,2.30
2018-06-02T10:46:32.122Z,2.13
2018-06-02T10:48:59.843Z,2.50
2018-06-02T10:51:27.576Z,2.37
2018-06-02T10:53:55.307Z,2.40
2018-06-02T10:56:23.130Z,2.07
2018-06-02T10:58:50.994Z,2.37
2018-06-02T11:01:18.679Z,1.90
2018-06-02T11:03:46.412Z,1.50
2018-06-02T11:06:14.107Z,1.43
2018-06-02T11:08:41.805Z,1.83
2018-06-02T11:11:09.562Z,2.43
2018-06-02T11:13:44.038Z,2.20
2018-06-02T11:16:12.727Z,2.27
2018-06-02T11:18:41.162Z,2.00
2018-06-02T11:21:09.418Z,1.67
2018-06-02T11:23:37.434Z,1.73
2018-06-02T11:26:06.222Z,1.80
2018-06-02T11:28:34.002Z,1.70
2018-06-02T11:31:02.580Z,2.10
2018-06-02T11:33:31.034Z,2.17
2018-06-02T11:35:58.733Z,1.73
2018-06-02T11:38:26.442Z,1.80
2018-06-02T11:40:54.906Z,2.03
2018-06-02T11:43:22.647Z,2.07
2018-06-02T11:45:50.322Z,1.83
2018-06-02T11:48:18.051Z,1.90
2018-06-02T11:50:45.805Z,1.70
2018-06-02T11:53:13.532Z,1.70
2018-06-02T11:55:41.301Z,1.87
2018-06-02T11:58:09.035Z,1.50
2018-06-02T12:00:36.746Z,1.40
2018-06-02T12:03:04.450Z,1.20
2018-06-02T12:05:32.166Z,1.00
2018-06-02T12:08:01.348Z,1.43
2018-06-02T12:10:29.103Z,1.27
2018-06-02T12:12:56.832Z,1.33
2018-06-02T12:15:24.543Z,1.10
2018-06-02T12:17:52.287Z,1.37
2018-06-02T12:20:20.011Z,1.00
2018-06-02T12:22:47.726Z,0.93
2018-06-02T12:25:15.447Z,1.30
2018-06-02T12:27:43.252Z,2.17
2018-06-02T12:30:10.946Z,2.10
2018-06-02T12:32:38.627Z,1.90
2018-06-02T12:35:07.208Z,2.53
2018-06-02T12:37:34.924Z,2.80
2018-06-02T12:40:02.647Z,2.40
2018-06-02T12:42:30.365Z,2.40
2018-06-02T12:44:58.083Z,2.30
2018-06-02T12:47:25.780Z,2.70
2018-06-02T12:49:53.498Z,2.50
2018-06-02T12:52:21.219Z,2.17
2018-06-02T12:54:48.937Z,2.30
2018-06-02T12:57:16.619Z,2.50
2018-06-02T12:59:44.340Z,2.87
2018-06-02T13:02:12.827Z,3.90
2018-06-02T13:04:41.260Z,3.13
2018-06-02T13:07:08.974Z,2.90
2018-06-02T13:09:36.653Z,3.10
2018-06-02T13:12:04.374Z,2.93
2018-06-02T13:14:32.166Z,3.03
2018-06-02T13:16:59.919Z,3.50
2018-06-02T13:19:27.618Z,4.40
2018-06-02T13:21:55.313Z,5.40
2018-06-02T13:24:23.110Z,8.60
2018-06-02T13:26:50.831Z,9.70
2018-06-02T13:29:18.548Z,7.10
2018-06-02T13:31:46.218Z,5.00
2018-06-02T13:34:13.939Z,4.40
2018-06-02T13:36:41.615Z,3.70
2018-06-02T13:39:10.347Z,3.83
2018-06-02T13:41:38.020Z,4.17
2018-06-02T13:44:05.694Z,4.13
2018-06-02T13:46:33.408Z,4.83
2018-06-02T13:49:01.108Z,4.50
2018-06-02T13:51:28.871Z,3.90
2018-06-02T13:53:56.552Z,3.80
2018-06-02T13:56:24.234Z,3.43
2018-06-02T13:58:52.021Z,2.90
2018-06-02T14:01:20.495Z,3.70
2018-06-02T14:03:48.940Z,3.37
2018-06-02T14:06:16.667Z,3.10
2018-06-02T14:08:45.106Z,2.50
2018-06-02T14:11:12.792Z,2.60
2018-06-02T14:13:40.512Z,3.43
2018-06-02T14:16:08.198Z,2.90
2018-06-02T14:18:35.983Z,3.70
2018-06-02T14:21:03.628Z,3.20
2018-06-02T14:23:31.347Z,3.50
2018-06-02T14:25:59.032Z,3.63
2018-06-02T14:28:26.766Z,2.80
2018-06-02T14:30:54.489Z,2.40
2018-06-02T14:33:22.158Z,2.40
2018-06-02T14:35:49.874Z,2.20
2018-06-02T14:38:17.550Z,2.10
2018-06-02T14:40:45.271Z,2.07
2018-06-02T14:43:12.947Z,2.13
2018-06-02T14:45:40.663Z,1.60
2018-06-02T14:48:08.382Z,1.30
2018-06-02T14:50:36.054Z,1.50
2018-06-02T14:53:03.809Z,1.73
2018-06-02T14:55:31.478Z,2.00
2018-06-02T14:57:59.150Z,1.37
2018-06-02T15:00:26.871Z,0.97
2018-06-02T15:02:54.588Z,0.90
2018-06-02T15:05:23.026Z,1.30
2018-06-02T15:07:50.743Z,1.80
2018-06-02T15:10:18.425Z,1.37
2018-06-02T15:12:46.872Z,1.23
2018-06-02T15:15:14.591Z,1.23
2018-06-02T15:17:42.298Z,1.73
2018-06-02T15:20:09.983Z,1.50
2018-06-02T15:22:37.724Z,1.50
2018-06-02T15:25:06.210Z,1.00
2018-06-02T15:27:34.690Z,1.53
2018-06-02T15:30:02.414Z,1.40
2018-06-02T15:32:30.122Z,1.47
2018-06-02T15:34:57.798Z,1.73
2018-06-02T15:37:25.527Z,1.40
2018-06-02T15:39:53.202Z,1.60
2018-06-02T15:42:20.889Z,1.13
2018-06-02T15:44:48.617Z,1.30
2018-06-02T15:47:16.326Z,1.50
2018-06-02T15:49:44.771Z,1.20
2018-06-02T15:52:12.539Z,1.00
2018-06-02T15:54:40.218Z,1.00
2018-06-02T15:57:07.886Z,1.00
2018-06-02T15:59:35.604Z,1.50
2018-06-02T16:02:03.319Z,1.20
2018-06-02T16:04:31.058Z,1.33
2018-06-02T16:06:58.750Z,1.20
2018-06-02T16:09:26.430Z,1.10
2018-06-02T16:11:54.142Z,0.87
2018-06-02T16:14:22.593Z,1.13
2018-06-02T16:16:50.329Z,1.43
2018-06-02T16:19:18.034Z,1.10
2018-06-02T16:21:45.706Z,0.90
2018-06-02T16:24:13.422Z,0.90
2018-06-02T16:26:41.871Z,1.00
2018-06-02T16:29:10.163Z,0.80
2018-06-02T16:31:37.915Z,0.67
2018-06-02T16:34:05.756Z,0.70
2018-06-02T16:36:33.471Z,1.00
2018-06-02T16:39:01.190Z,1.60
2018-06-02T16:41:28.877Z,0.97
2018-06-02T16:43:56.620Z,1.50
2018-06-02T16:46:25.064Z,1.17
2018-06-02T16:48:52.743Z,1.20
2018-06-02T16:51:20.458Z,1.40
2018-06-02T16:53:48.175Z,1.53
2018-06-02T16:56:15.887Z,1.23
2018-06-02T16:58:43.566Z,1.30
2018-06-02T17:01:11.278Z,1.30
2018-06-02T17:03:38.949Z,1.10
2018-06-02T17:06:07.434Z,1.40
2018-06-02T17:08:35.892Z,1.20
2018-06-02T17:11:03.616Z,0.97
2018-06-02T17:13:31.340Z,1.40
2018-06-02T17:15:59.786Z,1.20
2018-06-02T17:18:27.498Z,1.00
2018-06-02T17:20:55.937Z,1.03
2018-06-02T17:23:23.651Z,1.13
2018-06-02T17:25:51.366Z,1.03
2018-06-02T17:28:19.339Z,1.20
2018-06-02T17:30:47.055Z,1.10
2018-06-02T17:33:14.738Z,1.13
2018-06-02T17:35:42.495Z,1.10
2018-06-02T17:38:10.934Z,1.33
2018-06-02T17:40:38.643Z,1.50
2018-06-02T17:43:07.077Z,1.50
2018-06-02T17:45:34.797Z,2.07
2018-06-02T17:48:02.621Z,1.90
2018-06-02T17:50:31.260Z,1.80
2018-06-02T17:52:59.031Z,1.73
2018-06-02T17:55:26.756Z,1.57
2018-06-02T17:57:55.544Z,1.47
2018-06-02T18:00:24.178Z,1.47
2018-06-02T18:02:51.951Z,1.60
2018-06-02T18:05:20.486Z,1.53
2018-06-02T18:07:48.925Z,1.63
2018-06-02T18:10:16.719Z,1.27
2018-06-02T18:12:44.599Z,1.25
2018-06-02T18:15:12.774Z,1.00
2018-06-02T18:17:40.707Z,1.50
2018-06-02T18:20:08.418Z,1.87
2018-06-02T18:22:36.165Z,1.83
2018-06-02T18:25:03.984Z,1.90
2018-06-02T18:27:31.776Z,1.77
2018-06-02T18:29:59.467Z,1.90
2018-06-02T18:32:27.183Z,1.70
2018-06-02T18:34:54.859Z,1.80
2018-06-02T18:37:22.571Z,1.73
2018-06-02T18:39:50.318Z,1.53
2018-06-02T18:42:18.055Z,1.60
2018-06-02T18:44:45.772Z,2.30
2018-06-02T18:47:14.207Z,1.70
2018-06-02T18:49:41.927Z,1.70
2018-06-02T18:52:09.605Z,2.00
2018-06-02T18:54:37.318Z,2.20
2018-06-02T18:57:05.039Z,2.23
2018-06-02T18:59:32.724Z,2.47
2018-06-02T19:02:00.434Z,2.50
2018-06-02T19:04:28.112Z,2.03
2018-06-02T19:06:55.819Z,2.13
2018-06-02T19:09:24.297Z,2.00
2018-06-02T19:11:52.183Z,2.17
2018-06-02T19:14:19.961Z,2.63
2018-06-02T19:16:48.012Z,2.50
2018-06-02T19:19:15.977Z,2.50
2018-06-02T19:21:43.996Z,2.90
2018-06-02T19:24:11.779Z,3.20
2018-06-02T19:26:39.599Z,3.00
2018-06-02T19:29:07.435Z,3.53
2018-06-02T19:31:35.201Z,5.03
2018-06-02T19:34:02.965Z,6.20
2018-06-02T19:36:30.840Z,6.07
2018-06-02T19:38:59.517Z,4.80
2018-06-02T19:41:27.282Z,4.50
2018-06-02T19:43:55.151Z,4.10
2018-06-02T19:46:23.679Z,3.20
2018-06-02T19:48:51.642Z,3.17
2018-06-02T19:51:19.491Z,3.10
2018-06-02T19:53:47.468Z,3.70
2018-06-02T19:56:15.412Z,3.53
2018-06-02T19:58:43.176Z,3.67
2018-06-02T20:01:11.042Z,3.50
2018-06-02T20:03:38.911Z,4.10
2018-06-02T20:06:07.556Z,3.80
2018-06-02T20:08:35.318Z,3.97
2018-06-02T20:11:03.339Z,3.63
2018-06-02T20:13:31.136Z,3.60
2018-06-02T20:15:59.827Z,3.83
2018-06-02T20:18:28.466Z,3.70
2018-06-02T20:20:56.440Z,3.93
2018-06-02T20:23:24.302Z,3.90
2018-06-02T20:25:52.273Z,3.47
2018-06-02T20:28:20.870Z,3.53
2018-06-02T20:30:48.585Z,3.20
2018-06-02T20:33:16.489Z,4.20
2018-06-02T20:35:44.254Z,3.47
2018-06-02T20:38:12.020Z,4.57
2018-06-02T20:40:39.888Z,4.30
2018-06-02T20:43:07.772Z,4.90
2018-06-02T20:45:35.519Z,4.50
2018-06-02T20:48:03.396Z,3.87
2018-06-02T20:50:31.121Z,3.90
2018-06-02T20:52:59.564Z,4.23
2018-06-02T20:55:27.261Z,4.97
2018-06-02T20:57:54.990Z,4.40
2018-06-02T21:00:22.738Z,4.40
2018-06-02T21:02:51.195Z,4.30
2018-06-02T21:05:18.866Z,4.17
2018-06-02T21:07:46.652Z,4.63
2018-06-02T21:10:14.318Z,4.00
2018-06-02T21:12:42.001Z,4.27
2018-06-02T21:15:09.719Z,5.10
2018-06-02T21:17:37.399Z,8.93
2018-06-02T21:20:05.130Z,10.73
2018-06-02T21:22:32.887Z,9.60
2018-06-02T21:25:00.559Z,7.20
2018-06-02T21:27:28.239Z,6.13
2018-06-02T21:29:55.991Z,5.70
2018-06-02T21:32:23.849Z,5.57
2018-06-02T21:34:51.715Z,5.00
2018-06-02T21:37:19.480Z,5.30
2018-06-02T21:39:47.186Z,5.30
2018-06-02T21:42:15.829Z,5.27
2018-06-02T21:44:43.557Z,5.03
2018-06-02T21:47:12.091Z,5.60
2018-06-02T21:49:39.945Z,5.03
2018-06-02T21:52:08.390Z,5.50
2018-06-02T21:54:36.064Z,5.23
2018-06-02T21:57:04.542Z,5.33
2018-06-02T21:59:33.100Z,5.20
2018-06-02T22:02:00.822Z,5.10
2018-06-02T22:04:28.558Z,5.87
2018-06-02T22:06:56.534Z,5.90
2018-06-02T22:09:25.080Z,5.73
2018-06-02T22:11:52.958Z,5.40
2018-06-02T22:14:20.802Z,4.93
2018-06-02T22:16:48.669Z,5.23
2018-06-02T22:19:16.479Z,5.30
2018-06-02T22:21:44.247Z,5.47
2018-06-02T22:24:11.970Z,5.47
2018-06-02T22:26:39.666Z,5.23
2018-06-02T22:29:08.148Z,5.30
2018-06-02T22:31:36.591Z,4.87
2018-06-02T22:34:04.343Z,4.63
2018-06-02T22:36:32.015Z,4.17
2018-06-02T22:38:59.690Z,5.07
2018-06-02T22:41:27.401Z,4.87
2018-06-02T22:43:55.071Z,4.73
2018-06-02T22:46:22.786Z,4.63
2018-06-02T22:48:50.462Z,4.33
2018-06-02T22:55:02.279Z,5.40
2018-06-02T22:57:31.506Z,4.90
2018-06-02T23:00:00.467Z,4.90
2018-06-02T23:02:29.335Z,4.47
2018-06-02T23:04:58.218Z,5.00
2018-06-02T23:07:27.236Z,4.80
2018-06-02T23:09:56.122Z,4.77
2018-06-02T23:12:25.030Z,5.27
2018-06-02T23:14:53.879Z,4.97
2018-06-02T23:17:22.807Z,4.80
2018-06-02T23:19:51.636Z,4.93
2018-06-02T23:22:34.211Z,5.23
2018-06-02T23:25:03.110Z,4.97
2018-06-02T23:27:31.989Z,5.00
2018-06-02T23:30:00.881Z,5.53
2018-06-02T23:32:29.723Z,5.03
2018-06-02T23:34:58.612Z,5.10
2018-06-02T23:37:27.447Z,5.33
2018-06-02T23:39:56.278Z,5.90
2018-06-02T23:42:25.143Z,4.87
2018-06-02T23:44:54.023Z,5.00
2018-06-02T23:47:22.846Z,4.63
2018-06-02T23:49:51.314Z,4.77
2018-06-02T23:52:20.126Z,4.80
2018-06-02T23:54:48.983Z,5.10
2018-06-02T23:57:17.811Z,5.30
2018-06-02T23:59:46.674Z,5.20
